Weather observations for the past three days for
Frankfort, Frankfort Dow Memorial Field Airport
| Date | Time (edt) | Wind (mph) | Vis. (mi.) | Weather | Sky Cond. | Temperature (ºF) | Relative Humidity | Wind Chill (°F) | Heat Index (°F) | Pressure | Precipitation (in) | ||||||
|---|---|---|---|---|---|---|---|---|---|---|---|---|---|---|---|---|---|
| Air | Dwpt | 6 hour | altimeter (in) | sea level (mb) | 1 hr | 3 hr | 6 hr | ||||||||||
| Max. | Min. | ||||||||||||||||
| 02 | 18:15 | W 7 | 10.00 | Fair | CLR | 48.2 | 23 | 37% | 46 | 29.97 | 0.0 | ||||||
| 02 | 17:55 | Vrbl 5 | 10.00 | Fair | CLR | 48.2 | 23 | 37% | 47 | 29.98 | 0.0 | ||||||
| 02 | 17:35 | W 8 | 10.00 | Fair | CLR | 48.2 | 23 | 37% | 45 | 29.99 | 0.0 | ||||||
| 02 | 17:15 | W 6 | 10.00 | Fair | CLR | 48.2 | 21.2 | 34% | 46 | 29.99 | 0.0 | ||||||
| 02 | 16:55 | SW 5 | 10.00 | Fair | CLR | 48.2 | 23 | 37% | 47 | 30 | 0.0 | ||||||
| 02 | 16:35 | Vrbl 7 | 10.00 | Fair | CLR | 48.2 | 23 | 37% | 46 | 30 | 0.0 | ||||||
| 02 | 16:15 | W 8 | 10.00 | Fair | CLR | 48.2 | 23 | 37% | 45 | 30.01 | 0.0 | ||||||
| 02 | 15:55 | SW 7 | 10.00 | Fair | CLR | 46.4 | 19.4 | 34% | 43 | 30.02 | 0.0 | ||||||
| 02 | 15:35 | Vrbl 7 | 10.00 | Fair | CLR | 46.4 | 19.4 | 34% | 43 | 30.03 | 0.0 | ||||||
| 02 | 15:15 | Vrbl 6 | 10.00 | Fair | CLR | 46.4 | 23 | 40% | 44 | 30.04 | 0.0 | ||||||
| 02 | 14:55 | W 9 | 10.00 | Fair | CLR | 46.4 | 23 | 40% | 42 | 30.04 | 0.0 | ||||||
| 02 | 14:35 | W 8 | 10.00 | Fair | CLR | 44.6 | 19.4 | 37% | 41 | 30.05 | 0.0 | ||||||
| 02 | 13:55 | SW 8 | 10.00 | Fair | CLR | 44.6 | 19.4 | 46 | 28.9 | 37% | 41 | 30.06 | 0.0 | ||||
| 02 | 13:35 | W 10 | 10.00 | Fair | CLR | 44.6 | 17.6 | 34% | 40 | 30.06 | 0.0 | ||||||
| 02 | 13:15 | W 9 | 10.00 | Fair | CLR | 44.6 | 19.4 | 37% | 40 | 30.06 | 0.0 | ||||||
| 02 | 12:55 | W 9 | 10.00 | Fair | CLR | 44.6 | 19.4 | 37% | 40 | 30.07 | 0.0 | ||||||
| 02 | 12:35 | W 9 | 10.00 | Fair | CLR | 44.6 | 17.6 | 34% | 40 | 30.07 | 0.0 | ||||||
| 02 | 12:15 | W 8 | 10.00 | Fair | CLR | 44.6 | 19.4 | 37% | 41 | 30.07 | 0.0 | ||||||
| 02 | 11:55 | W 9 | 10.00 | Fair | CLR | 44.6 | 19.4 | 37% | 40 | 30.07 | 0.0 | ||||||
| 02 | 11:35 | W 8 | 10.00 | Fair | CLR | 44.6 | 19.4 | 37% | 41 | 30.07 | 0.0 | ||||||
| 02 | 11:15 | W 8 | 10.00 | Fair | CLR | 44.6 | 19.4 | 37% | 41 | 30.07 | 0.0 | ||||||
| 02 | 10:55 | W 10 | 10.00 | Fair | CLR | 44.6 | 15.8 | 31% | 40 | 30.07 | 0.0 | ||||||
| 02 | 10:35 | W 8 | 10.00 | Fair | CLR | 44.6 | 17.6 | 34% | 41 | 30.07 | 0.0 | ||||||
| 02 | 10:15 | W 9 | 10.00 | Fair | CLR | 42.8 | 17.6 | 36% | 38 | 30.08 | 0.0 | ||||||
| 02 | 09:55 | NW 6 | 10.00 | Fair | CLR | 42.8 | 17.6 | 36% | 40 | 30.08 | 0.0 | ||||||
| 02 | 09:35 | Vrbl 2 | 10.00 | Fair | CLR | 41 | 19.4 | 42% | 30.08 | 0.0 | |||||||
| 02 | 09:15 | Vrbl 2 | 10.00 | Fair | CLR | 39.2 | 21.2 | 48% | 30.08 | 0.0 | |||||||
| 02 | 08:55 | Calm | 10.00 | Fair | CLR | 37.4 | 26.6 | 65% | 30.09 | 0.0 | |||||||
| 02 | 08:35 | Vrbl 1 | 10.00 | Fair | CLR | 35.6 | 28.4 | 75% | 30.09 | 0.0 | |||||||
| 02 | 08:15 | Calm | 10.00 | Fair | CLR | 32 | 26.6 | 80% | 30.09 | 0.0 | |||||||
| 02 | 07:55 | Calm | 10.00 | Fair | CLR | 30.2 | 24.8 | 30.4 | 25.9 | 80% | 30.09 | 0.0 | |||||
| 02 | 07:35 | Calm | 10.00 | Fair | CLR | 26.6 | 23 | 86% | 30.09 | 0.0 | |||||||
| 02 | 07:15 | Calm | 10.00 | Fair | CLR | 26.6 | 23 | 86% | 30.08 | 0.0 | |||||||
| 02 | 06:55 | Calm | 10.00 | Fair | CLR | 26.6 | 23 | 86% | 30.08 | 0.0 | |||||||
| 02 | 06:35 | Calm | 10.00 | Fair | CLR | 26.6 | 23 | 86% | 30.08 | 0.0 | |||||||
| 02 | 06:15 | NW 1 | 10.00 | Fair | CLR | 26.6 | 23 | 86% | 30.08 | 0.0 | |||||||
| 02 | 05:55 | Calm | 10.00 | Partly Cloudy | SCT050 | 26.6 | 23 | 86% | 30.08 | 0.0 | |||||||
| 02 | 05:35 | SE 1 | 10.00 | Mostly Cloudy | BKN050 | 28.4 | 24.8 | 86% | 30.08 | 0.0 | |||||||
| 02 | 05:15 | Calm | 10.00 | Overcast | OVC050 | 28.4 | 24.8 | 86% | 30.08 | 0.0 | |||||||
| 02 | 04:55 | NW 1 | 10.00 | Overcast | OVC050 | 28.4 | 26.6 | 93% | 30.07 | 0.0 | |||||||
| 02 | 04:35 | Calm | 10.00 | Overcast | OVC050 | 28.4 | 26.6 | 93% | 30.07 | 0.0 | |||||||
| 02 | 04:15 | E 1 | 10.00 | Mostly Cloudy | BKN050 | 28.4 | 26.6 | 93% | 30.07 | 0.0 | |||||||
| 02 | 03:55 | Calm | 10.00 | Partly Cloudy | SCT050 | 28.4 | 26.6 | 93% | 30.07 | 0.0 | |||||||
| 02 | 03:35 | NW 1 | 10.00 | Fair | CLR | 28.4 | 26.6 | 93% | 30.07 | 0.0 | |||||||
| 02 | 03:15 | Calm | 10.00 | A Few Clouds | FEW050 | 28.4 | 26.6 | 93% | 30.07 | 0.0 | |||||||
| 02 | 02:55 | S 1 | 10.00 | A Few Clouds | FEW050 | 28.4 | 26.6 | 93% | 30.07 | 0.0 | |||||||
| 02 | 02:35 | Calm | 10.00 | Partly Cloudy | SCT050 | 30.2 | 28.4 | 93% | 30.07 | 0.0 | |||||||
| 02 | 02:15 | NW 1 | 10.00 | Overcast | OVC050 | 30.2 | 28.4 | 93% | 30.07 | 0.0 | |||||||
| 02 | 01:55 | NW 1 | 10.00 | Overcast | OVC060 | 30.2 | 28.4 | 38.5 | 28.2 | 93% | 30.07 | 0.0 | |||||
| 02 | 01:35 | Calm | 10.00 | Mostly Cloudy | BKN060 | 28.4 | 26.6 | 93% | 30.07 | 0.0 | |||||||
| 02 | 01:15 | Calm | 10.00 | Fair | CLR | 28.4 | 26.6 | 93% | 30.07 | 0.0 | |||||||
| 02 | 00:55 | N 1 | 10.00 | Fair | CLR | 28.4 | 26.6 | 93% | 30.07 | 0.0 | |||||||
| 02 | 00:35 | NW 1 | 10.00 | Fair | CLR | 30.2 | 28.4 | 93% | 30.07 | 0.0 | |||||||
| 02 | 00:15 | SW 1 | 10.00 | Fair | CLR | 30.2 | 26.6 | 86% | 30.07 | 0.0 | |||||||
| 01 | 23:55 | Calm | 10.00 | Fair | CLR | 30.2 | 28.4 | 93% | 30.07 | 0.0 | |||||||
| 01 | 23:35 | Vrbl 1 | 10.00 | Fair | CLR | 30.2 | 28.4 | 93% | 30.07 | 0.0 | |||||||
| 01 | 23:15 | NE 2 | 10.00 | Fair | CLR | 32 | 28.4 | 87% | 30.07 | 0.0 | |||||||
| 01 | 22:55 | Vrbl 1 | 10.00 | Fair | CLR | 32 | 28.4 | 87% | 30.07 | 0.0 | |||||||
| 01 | 22:35 | N 2 | 10.00 | A Few Clouds | FEW080 | 33.8 | 28.4 | 81% | 30.07 | 0.0 | |||||||
| 01 | 22:15 | NW 5 | 10.00 | Overcast | OVC080 | 35.6 | 30.2 | 81% | 32 | 30.08 | 0.0 | ||||||
| 01 | 21:55 | NW 7 | 10.00 | Overcast | OVC080 | 37.4 | 30.2 | 75% | 33 | 30.07 | 0.0 | ||||||
| 01 | 21:35 | NW 3 | 10.00 | Overcast | OVC080 | 37.4 | 30.2 | 75% | 30.07 | 0.0 | |||||||
| 01 | 21:15 | NW 5 | 10.00 | Overcast | OVC080 | 37.4 | 30.2 | 75% | 34 | 30.06 | 0.0 | ||||||
| 01 | 20:55 | W 7 | 10.00 | Overcast | OVC080 | 37.4 | 30.2 | 75% | 33 | 30.06 | 0.0 | ||||||
| 01 | 20:35 | NW 8 | 10.00 | Overcast | OVC080 | 37.4 | 28.4 | 70% | 32 | 30.06 | 0.0 | ||||||
| 01 | 20:15 | NW 9 | 10.00 | Overcast | OVC080 | 37.4 | 28.4 | 70% | 31 | 30.06 | 0.0 | ||||||
| 01 | 19:55 | NW 7 | 10.00 | Overcast | OVC080 | 39.2 | 28.4 | 44.1 | 38.3 | 65% | 35 | 30.06 | 0.0 | ||||
| 01 | 19:35 | W 10 | 10.00 | Overcast | OVC080 | 39.2 | 28.4 | 65% | 33 | 30.06 | 0.0 | ||||||
| 01 | 19:15 | W 7 | 10.00 | Overcast | OVC080 | 39.2 | 28.4 | 65% | 35 | 30.05 | 0.0 | ||||||
| 01 | 18:55 | NW 7 | 10.00 | Overcast | OVC080 | 41 | 26.6 | 57% | 37 | 30.05 | 0.0 | ||||||
| 01 | 18:35 | NW 9 | 10.00 | Overcast | OVC080 | 41 | 26.6 | 57% | 36 | 30.05 | 0.0 | ||||||
| 01 | 18:15 | NW 8 | 10.00 | Overcast | OVC080 | 41 | 26.6 | 57% | 36 | 30.05 | 0.0 | ||||||
| 01 | 17:55 | NW 12 | 10.00 | Overcast | OVC080 | 41 | 26.6 | 57% | 35 | 30.05 | 0.0 | ||||||
| 01 | 17:35 | NW 8 | 10.00 | Overcast | OVC090 | 39.2 | 26.6 | 61% | 34 | 30.04 | 0.0 | ||||||
| 01 | 17:15 | NW 9 | 10.00 | Overcast | OVC090 | 41 | 24.8 | 53% | 36 | 30.04 | 0.0 | ||||||
| 01 | 16:55 | N 8 | 10.00 | Overcast | OVC090 | 41 | 26.6 | 57% | 36 | 30.03 | 0.0 | ||||||
| 01 | 16:35 | N 8 | 10.00 | Overcast | OVC090 | 41 | 26.6 | 57% | 36 | 30.03 | 0.0 | ||||||
| 01 | 16:15 | N 10 | 10.00 | Overcast | FEW027 OVC080 | 41 | 26.6 | 57% | 35 | 30.04 | 0.0 | ||||||
| 01 | 15:55 | N 10 G 17 | 10.00 | Overcast | OVC080 | 41 | 28.4 | 61% | 35 | 30.03 | 0.0 | ||||||
| 01 | 15:35 | N 13 | 10.00 | Overcast | OVC080 | 41 | 26.6 | 57% | 34 | 30.03 | 0.0 | ||||||
| 01 | 15:15 | N 14 G 20 | 10.00 | Overcast | SCT024 OVC080 | 42.8 | 28.4 | 57% | 36 | 30.03 | 0.0 | ||||||
| 01 | 14:55 | NW 12 G 18 | 10.00 | Overcast | BKN024 OVC080 | 42.8 | 30.2 | 61% | 37 | 30.03 | 0.0 | ||||||
| 01 | 14:35 | NW 14 G 18 | 10.00 | Overcast | SCT024 OVC080 | 42.8 | 28.4 | 57% | 36 | 30.03 | 0.0 | ||||||
| 01 | 14:15 | NW 10 | 10.00 | Overcast | FEW022 OVC080 | 42.8 | 26.6 | 53% | 38 | 30.02 | 0.0 | ||||||
| 01 | 13:55 | N 10 | 10.00 | Overcast | SCT022 OVC080 | 41 | 28.4 | 43.3 | 36.3 | 61% | 35 | 30.02 | 0.0 | ||||
| 01 | 13:35 | N 13 | 10.00 | Overcast | SCT024 SCT028 OVC080 | 41 | 28.4 | 61% | 34 | 30.02 | 0.0 | ||||||
| 01 | 13:15 | N 9 G 16 | 10.00 | Overcast | SCT024 SCT028 OVC080 | 42.8 | 30.2 | 61% | 38 | 30.02 | 0.0 | ||||||
| 01 | 12:55 | N 10 G 16 | 10.00 | Overcast | OVC080 | 42.8 | 26.6 | 53% | 38 | 30.03 | 0.0 | ||||||
| 01 | 12:35 | NW 8 G 16 | 10.00 | Overcast | FEW026 OVC080 | 41 | 26.6 | 57% | 36 | 30.02 | 0.0 | ||||||
| 01 | 12:15 | NW 12 | 10.00 | Overcast | FEW023 OVC080 | 41 | 28.4 | 61% | 35 | 30.02 | 0.0 | ||||||
| 01 | 11:55 | N 7 | 10.00 | Overcast | FEW021 OVC080 | 39.2 | 28.4 | 65% | 35 | 30.02 | 0.0 | ||||||
| 01 | 11:35 | N 9 | 10.00 | Overcast | FEW021 OVC080 | 39.2 | 28.4 | 65% | 34 | 30.03 | 0.0 | ||||||
| 01 | 11:15 | N 9 | 10.00 | Overcast | FEW023 OVC080 | 39.2 | 28.4 | 65% | 34 | 30.02 | 0.0 | ||||||
| 01 | 10:55 | N 9 | 10.00 | Overcast | FEW021 OVC080 | 39.2 | 26.6 | 61% | 34 | 30.02 | 0.0 | ||||||
| 01 | 10:35 | NW 6 | 10.00 | Overcast | FEW021 OVC080 | 39.2 | 26.6 | 61% | 36 | 30.02 | 0.0 | ||||||
| 01 | 10:15 | N 6 | 10.00 | Overcast | FEW022 OVC080 | 39.2 | 28.4 | 65% | 36 | 30.02 | 0.0 | ||||||
| 01 | 09:55 | NW 6 | 10.00 | Overcast | FEW022 OVC070 | 39.2 | 28.4 | 65% | 36 | 30.02 | 0.0 | ||||||
| 01 | 09:35 | N 5 | 10.00 | Overcast | OVC070 | 37.4 | 26.6 | 65% | 34 | 30.02 | 0.0 | ||||||
| 01 | 09:15 | N 7 | 10.00 | Overcast | FEW020 FEW048 OVC070 | 37.4 | 28.4 | 70% | 33 | 30.02 | 0.0 | ||||||
| 01 | 08:55 | Vrbl 5 | 10.00 | Overcast | FEW021 FEW049 OVC070 | 37.4 | 28.4 | 70% | 34 | 30.02 | 0.0 | ||||||
| 01 | 08:35 | Vrbl 5 | 10.00 | Overcast | OVC070 | 37.4 | 28.4 | 70% | 34 | 30.01 | 0.0 | ||||||
| 01 | 08:15 | N 5 | 10.00 | Overcast | OVC070 | 37.4 | 26.6 | 65% | 34 | 30 | 0.0 | ||||||
| 01 | 07:55 | Vrbl 2 | 10.00 | Overcast | OVC060 | 35.6 | 24.8 | 38.1 | 36 | 65% | 30 | 0.0 | |||||
| 01 | 07:35 | Vrbl 3 | 10.00 | Overcast | FEW050 OVC060 | 35.6 | 24.8 | 65% | 30 | 0.0 | |||||||
| 01 | 07:15 | Vrbl 1 | 10.00 | Overcast | BKN050 OVC060 | 35.6 | 24.8 | 65% | 29.99 | 0.0 | |||||||
| 01 | 06:55 | Vrbl 1 | 10.00 | Overcast | BKN050 OVC065 | 35.6 | 24.8 | 65% | 29.99 | 0.0 | |||||||
| 01 | 06:35 | N 2 | 10.00 | Overcast | OVC050 | 35.6 | 24.8 | 65% | 29.99 | 0.0 | |||||||
| 01 | 06:15 | Vrbl 3 | 10.00 | Overcast | BKN050 OVC065 | 35.6 | 24.8 | 65% | 29.99 | 0.0 | |||||||
| 01 | 05:55 | Vrbl 5 | 10.00 | Overcast | OVC050 | 35.6 | 24.8 | 65% | 32 | 29.98 | 0.0 | ||||||
| 01 | 05:35 | Vrbl 2 | 10.00 | Overcast | OVC048 | 35.6 | 26.6 | 70% | 29.99 | 0.0 | |||||||
| 01 | 05:15 | Vrbl 3 | 10.00 | Overcast | BKN048 OVC080 | 35.6 | 28.4 | 75% | 29.98 | 0.0 | |||||||
| 01 | 04:55 | Vrbl 7 | 10.00 | Overcast | BKN048 OVC080 | 37.4 | 30.2 | 75% | 33 | 29.98 | 0.0 | ||||||
| 01 | 04:35 | Vrbl 2 | 10.00 | Overcast | BKN046 OVC080 | 37.4 | 30.2 | 75% | 29.98 | 0.0 | |||||||
| 01 | 04:15 | Vrbl 5 | 10.00 | Overcast | OVC046 | 37.4 | 28.4 | 70% | 34 | 29.99 | 0.0 | ||||||
| 01 | 03:55 | N 3 | 10.00 | Overcast | OVC046 | 37.4 | 28.4 | 70% | 29.98 | 0.0 | |||||||
| 01 | 03:35 | NE 2 | 10.00 | Overcast | OVC048 | 37.4 | 28.4 | 70% | 29.99 | 0.0 | |||||||
| 01 | 03:15 | Vrbl 6 | 10.00 | Overcast | OVC050 | 37.4 | 28.4 | 70% | 33 | 29.99 | 0.0 | ||||||
| 01 | 02:55 | Vrbl 5 | 10.00 | Overcast | BKN050 OVC090 | 37.4 | 28.4 | 70% | 34 | 29.99 | 0.0 | ||||||
| 01 | 02:35 | Vrbl 2 | 10.00 | Overcast | BKN050 OVC090 | 37.4 | 32 | 81% | 29.99 | 0.0 | |||||||
| 01 | 02:15 | Vrbl 2 | 10.00 | Overcast | OVC050 | 37.4 | 32 | 81% | 29.99 | 0.0 | |||||||
| 01 | 01:55 | Vrbl 1 | 10.00 | Overcast | BKN050 OVC090 | 37.4 | 32 | 41.2 | 37.4 | 81% | 30 | 0.0 | |||||
| 01 | 01:35 | N 3 | 10.00 | Overcast | FEW050 OVC090 | 37.4 | 32 | 81% | 30 | 0.0 | |||||||
| 01 | 01:15 | N 3 | 10.00 | Overcast | FEW075 OVC090 | 37.4 | 32 | 81% | 30 | 0.0 | |||||||
| 01 | 00:55 | N 5 | 10.00 | Overcast | BKN075 OVC090 | 37.4 | 32 | 81% | 34 | 30 | 0.0 | ||||||
| 01 | 00:35 | N 5 | 10.00 | Mostly Cloudy | BKN075 BKN095 | 37.4 | 32 | 81% | 34 | 30 | 0.0 | ||||||
| 01 | 00:15 | N 6 | 10.00 | A Few Clouds | FEW075 FEW095 | 37.4 | 32 | 81% | 33 | 30 | 0.0 | ||||||
| 30 | 23:55 | Vrbl 6 | 10.00 | Partly Cloudy | SCT060 SCT070 | 37.4 | 30.2 | 75% | 33 | 30.01 | 0.0 | ||||||
| 30 | 23:35 | NW 6 | 10.00 | Overcast | OVC050 | 39.2 | 30.2 | 70% | 36 | 30.01 | 0.0 | ||||||
| 30 | 23:15 | NW 5 | 10.00 | Overcast | FEW046 OVC050 | 39.2 | 30.2 | 70% | 36 | 30.01 | 0.0 | ||||||
| 30 | 22:55 | Vrbl 2 | 10.00 | Overcast | FEW046 OVC050 | 39.2 | 30.2 | 70% | 30.01 | 0.0 | |||||||
| 30 | 22:35 | Vrbl 1 | 10.00 | Overcast | OVC050 | 39.2 | 28.4 | 65% | 30 | 0.0 | |||||||
| 30 | 22:15 | Vrbl 2 | 10.00 | Overcast | BKN060 OVC090 | 39.2 | 28.4 | 65% | 30 | 0.0 | |||||||
| 30 | 21:55 | N 5 | 10.00 | Overcast | FEW060 BKN070 OVC090 | 39.2 | 28.4 | 65% | 36 | 29.99 | 0.0 | ||||||
| 30 | 21:35 | Vrbl 3 | 10.00 | Overcast | FEW060 OVC070 | 39.2 | 26.6 | 61% | 29.99 | 0.0 | |||||||
| 30 | 21:15 | N 3 | 10.00 | Overcast | OVC070 | 39.2 | 28.4 | 65% | 29.99 | 0.0 | |||||||
| 30 | 20:55 | NW 5 | 10.00 | Overcast | OVC070 | 39.2 | 26.6 | 61% | 36 | 29.99 | 0.0 | ||||||
| 30 | 20:35 | N 2 | 10.00 | Overcast | OVC070 | 41 | 24.8 | 53% | 29.98 | 0.0 | |||||||
| 30 | 20:15 | Vrbl 5 | 10.00 | Overcast | BKN070 OVC085 | 41 | 24.8 | 53% | 38 | 29.98 | 0.0 | ||||||
| 30 | 19:55 | Vrbl 3 | 10.00 | Overcast | SCT070 OVC085 | 41 | 26.6 | 45 | 40.6 | 57% | 29.98 | 0.0 | |||||
| 30 | 19:35 | N 5 | 10.00 | Overcast | OVC085 | 41 | 24.8 | 53% | 38 | 29.98 | 0.0 | ||||||
| 30 | 19:15 | NE 5 | 10.00 | Overcast | FEW070 OVC085 | 42.8 | 24.8 | 49% | 41 | 29.98 | 0.0 | ||||||
| 30 | 18:55 | NW 5 | 10.00 | Overcast | SCT070 OVC085 | 42.8 | 24.8 | 49% | 41 | 29.98 | 0.0 | ||||||
| 30 | 18:35 | N 5 | 10.00 | Overcast | FEW070 OVC085 | 42.8 | 24.8 | 49% | 41 | 29.99 | 0.0 | ||||||
| 30 | 18:15 | Vrbl 2 | 10.00 | Overcast | OVC085 | 44.6 | 24.8 | 46% | 29.98 | 0.0 | |||||||
| 30 | 17:55 | NW 7 | 10.00 | Overcast | OVC085 | 42.8 | 21.2 | 42% | 39 | 29.98 | 0.0 | ||||||
| 30 | 17:35 | N 7 | 10.00 | Overcast | OVC085 | 44.6 | 23 | 43% | 41 | 29.99 | 0.0 | ||||||
| 30 | 17:15 | Vrbl 7 | 10.00 | Overcast | OVC085 | 44.6 | 24.8 | 46% | 41 | 29.99 | 0.0 | ||||||
| 30 | 16:55 | Vrbl 5 | 10.00 | Overcast | OVC085 | 42.8 | 24.8 | 49% | 41 | 29.99 | 0.0 | ||||||
| 30 | 16:35 | NW 6 | 10.00 | Overcast | OVC085 | 44.6 | 26.6 | 49% | 42 | 30 | 0.0 | ||||||
| 30 | 16:15 | Vrbl 7 | 10.00 | Overcast | OVC085 | 42.8 | 26.6 | 53% | 39 | 30 | 0.0 | ||||||
| 30 | 15:55 | N 7 | 10.00 | Mostly Cloudy | BKN085 | 42.8 | 28.4 | 57% | 39 | 30.01 | 0.0 | ||||||
| 30 | 15:35 | N 8 | 10.00 | Fair | CLR | 42.8 | 30.2 | 61% | 39 | 30.01 | 0.0 | ||||||
| 30 | 15:15 | N 8 | 10.00 | Partly Cloudy | SCT020 | 42.8 | 32 | 66% | 39 | 30.02 | 0.0 | ||||||
| 30 | 14:55 | NW 9 | 10.00 | Mostly Cloudy | BKN018 | 42.8 | 32 | 66% | 38 | 30.02 | 0.0 | ||||||
| 30 | 14:35 | NW 8 | 10.00 | Overcast | OVC016 | 42.8 | 32 | 66% | 39 | 30.02 | 0.0 | ||||||
| 30 | 14:15 | NW 10 | 10.00 | Overcast | OVC016 | 41 | 32 | 70% | 35 | 30.02 | 0.0 | ||||||
| 30 | 13:55 | NW 9 G 16 | 10.00 | Overcast | OVC016 | 41 | 32 | 43.9 | 36.3 | 70% | 36 | 30.02 | 0.0 | ||||
| 30 | 13:35 | N 9 | 10.00 | Overcast | OVC016 | 41 | 32 | 70% | 36 | 30.02 | 0.0 | ||||||
| 30 | 13:15 | NW 10 | 10.00 | Overcast | OVC016 | 41 | 32 | 70% | 35 | 30.02 | 0.0 | ||||||
| 30 | 12:55 | NW 13 G 18 | 10.00 | Overcast | OVC016 | 41 | 33.8 | 76% | 34 | 30.01 | 0.0 | ||||||
| 30 | 12:35 | NW 9 | 10.00 | Overcast | OVC014 | 41 | 32 | 70% | 36 | 30.02 | 0.0 | ||||||
| 30 | 12:15 | NW 9 | 10.00 | Overcast | OVC014 | 41 | 32 | 70% | 36 | 30.01 | 0.0 | ||||||
| 30 | 11:55 | NW 9 | 10.00 | Overcast | OVC012 | 41 | 32 | 70% | 36 | 30.01 | 0.0 | ||||||
| 30 | 11:35 | N 7 | 10.00 | Overcast | BKN012 OVC033 | 41 | 32 | 70% | 37 | 30.01 | 0.0 | ||||||
| 30 | 11:15 | N 5 | 10.00 | Overcast | BKN012 BKN026 OVC033 | 39.2 | 33.8 | 81% | 36 | 30.01 | 0.0 | ||||||
| 30 | 10:55 | Vrbl 7 | 10.00 | Overcast | BKN012 BKN019 OVC025 | 39.2 | 33.8 | 81% | 35 | 30.01 | 0.0 | ||||||
| 30 | 10:35 | Vrbl 6 | 10.00 | Overcast | BKN012 OVC019 | 39.2 | 33.8 | 81% | 36 | 30 | 0.0 | ||||||
| 30 | 10:15 | N 5 | 10.00 | Overcast | OVC010 | 39.2 | 33.8 | 81% | 36 | 30 | 0.0 | ||||||
| 30 | 09:55 | N 8 | 10.00 | Overcast | OVC010 | 37.4 | 33.8 | 87% | 32 | 30 | 0.0 | ||||||
| 30 | 09:35 | N 7 | 10.00 | Overcast | OVC010 | 37.4 | 33.8 | 87% | 33 | 30 | 0.0 | ||||||
| 30 | 09:15 | NW 6 | 10.00 | Overcast | BKN012 BKN025 OVC034 | 37.4 | 33.8 | 87% | 33 | 30 | 0.0 | ||||||
| 30 | 08:55 | Vrbl 2 | 10.00 | Overcast | SCT010 SCT025 OVC034 | 39.2 | 33.8 | 81% | 30 | 0.0 | |||||||
| 30 | 08:35 | Vrbl 5 | 10.00 | Overcast | BKN010 OVC032 | 37.4 | 32 | 81% | 34 | 30 | 0.0 | ||||||
| 30 | 08:15 | Vrbl 3 | 10.00 | Overcast | SCT010 OVC032 | 37.4 | 33.8 | 87% | 30 | 0.0 | |||||||
| 30 | 07:55 | Vrbl 2 | 10.00 | Overcast | SCT008 OVC030 | 35.6 | 33.8 | 39.4 | 36.3 | 93% | 29.99 | 0.0 | |||||
| 30 | 07:35 | Vrbl 6 | 10.00 | Overcast | FEW017 BKN026 OVC030 | 37.4 | 33.8 | 87% | 33 | 29.99 | 0.0 | ||||||
| 30 | 07:15 | Vrbl 5 | 10.00 | Overcast | FEW017 OVC022 | 37.4 | 33.8 | 87% | 34 | 29.99 | 0.0 | ||||||
| 30 | 06:55 | N 8 | 10.00 | Light Drizzle | OVC020 | 37.4 | 32 | 81% | 32 | 29.98 | 0.0 | ||||||
| 30 | 06:35 | NE 6 | 10.00 | Overcast | BKN012 OVC018 | 37.4 | 32 | 81% | 33 | 29.97 | 0.0 | ||||||
| 30 | 06:15 | N 3 | 10.00 | Overcast | OVC010 | 39.2 | 35.6 | 87% | 29.97 | 0.0 | |||||||
| 30 | 05:55 | W 5 | 10.00 | Overcast | SCT008 BKN022 OVC031 | 39.2 | 35.6 | 87% | 36 | 29.97 | 0.0 | ||||||
| 30 | 05:35 | SW 3 | 10.00 | Light Drizzle | FEW026 OVC031 | 39.2 | 35.6 | 87% | 29.97 | 0.0 | |||||||
| 30 | 05:15 | N 2 | 10.00 | Light Rain | FEW026 BKN031 OVC039 | 37.4 | 35.6 | 93% | 29.97 | 0.0 | |||||||
| 30 | 04:55 | N 1 | 10.00 | Light Drizzle | SCT022 BKN033 OVC050 | 39.2 | 35.6 | 87% | 29.97 | 0.0 | |||||||
| 30 | 04:35 | NW 3 | 10.00 | Overcast | FEW024 SCT040 OVC050 | 39.2 | 35.6 | 87% | 29.97 | 0.0 | |||||||
| 30 | 04:15 | W 2 | 10.00 | Overcast | OVC040 | 39.2 | 35.6 | 87% | 29.97 | 0.0 | |||||||
| 30 | 03:55 | W 2 | 10.00 | Overcast | SCT034 OVC044 | 39.2 | 35.6 | 87% | 29.97 | 0.0 | |||||||
| 30 | 03:35 | Calm | 10.00 | Overcast | BKN032 BKN048 OVC065 | 39.2 | 35.6 | 87% | 29.97 | 0.0 | |||||||
| 30 | 03:15 | Vrbl 2 | 10.00 | Overcast | SCT032 OVC065 | 39.2 | 35.6 | 87% | 29.97 | 0.0 | |||||||
| 30 | 02:55 | W 3 | 10.00 | Overcast | SCT030 BKN065 OVC120 | 39.2 | 35.6 | 87% | 29.98 | 0.0 | |||||||
| 30 | 02:35 | NW 3 | 10.00 | Mostly Cloudy | SCT065 SCT085 BKN120 | 39.2 | 35.6 | 87% | 29.98 | 0.0 | |||||||
| 30 | 02:15 | NW 3 | 10.00 | Overcast | SCT055 BKN075 OVC085 | 39.2 | 35.6 | 87% | 29.98 | 0.0 | |||||||
| 30 | 01:55 | Vrbl 6 | 10.00 | Overcast | SCT009 BKN039 OVC075 | 39.2 | 35.6 | 45 | 36.1 | 87% | 36 | 29.99 | 0.0 | ||||
| 30 | 01:35 | NW 7 | 10.00 | Overcast | SCT009 BKN030 OVC075 | 39.2 | 35.6 | 87% | 35 | 29.99 | 0.0 | ||||||
| 30 | 01:15 | NW 7 | 10.00 | Overcast | FEW030 OVC075 | 41 | 35.6 | 81% | 37 | 29.99 | 0.0 | ||||||
| 30 | 00:55 | Vrbl 7 | 10.00 | Overcast | FEW030 OVC085 | 41 | 35.6 | 81% | 37 | 29.99 | 0.0 | ||||||
| 30 | 00:35 | Vrbl 1 | 10.00 | Overcast | FEW028 BKN085 OVC110 | 37.4 | 33.8 | 87% | 29.99 | 0.0 | |||||||
| 30 | 00:15 | Calm | 10.00 | Overcast | OVC110 | 37.4 | 32 | 81% | 29.99 | 0.0 | |||||||
| 29 | 23:55 | Calm | 10.00 | Overcast | OVC120 | 35.6 | 32 | 87% | 29.99 | 0.0 | |||||||
| 29 | 23:35 | Vrbl 1 | 10.00 | Partly Cloudy | FEW080 SCT120 | 37.4 | 32 | 81% | 29.99 | 0.0 | |||||||
| 29 | 23:15 | E 2 | 10.00 | Mostly Cloudy | BKN090 | 37.4 | 33.8 | 87% | 29.99 | 0.0 | |||||||
| 29 | 22:55 | E 1 | 10.00 | Overcast | OVC090 | 39.2 | 33.8 | 81% | 29.99 | 0.0 | |||||||
| 29 | 22:35 | E 2 | 10.00 | Mostly Cloudy | BKN090 | 39.2 | 32 | 75% | 29.99 | 0.0 | |||||||
| 29 | 22:15 | W 2 | 10.00 | Mostly Cloudy | BKN090 | 37.4 | 32 | 81% | 29.99 | 0.0 | |||||||
| 29 | 21:55 | NW 3 | 10.00 | Mostly Cloudy | BKN090 | 39.2 | 32 | 75% | 29.98 | 0.0 | |||||||
| 29 | 21:35 | NW 3 | 10.00 | Partly Cloudy | SCT090 SCT110 | 39.2 | 32 | 75% | 29.98 | 0.0 | |||||||
| 29 | 21:15 | NW 7 | 10.00 | Mostly Cloudy | BKN110 | 41 | 32 | 70% | 37 | 29.97 | 0.0 | ||||||
| 29 | 20:55 | NW 6 | 10.00 | Mostly Cloudy | BKN110 | 42.8 | 32 | 66% | 40 | 29.97 | 0.0 | ||||||
| 29 | 20:35 | N 3 | 10.00 | Mostly Cloudy | SCT090 BKN120 | 42.8 | 32 | 66% | 29.96 | 0.0 | |||||||
| 29 | 20:15 | N 5 | 10.00 | Partly Cloudy | SCT120 | 44.6 | 32 | 61% | 43 | 29.96 | 0.0 | ||||||
| 29 | 19:55 | N 6 | 10.00 | A Few Clouds | FEW110 | 44.6 | 30.2 | 47.7 | 44.1 | 57% | 42 | 29.95 | 0.0 | ||||
| 29 | 19:35 | NW 5 | 10.00 | Mostly Cloudy | BKN100 | 46.4 | 32 | 57% | 45 | 29.95 | 0.0 | ||||||
| 29 | 19:15 | N 3 | 10.00 | Mostly Cloudy | BKN090 | 46.4 | 30.2 | 53% | 29.95 | 0.0 | |||||||
| 29 | 18:55 | N 6 | 10.00 | Mostly Cloudy | SCT065 BKN085 BKN120 | 44.6 | 30.2 | 57% | 42 | 29.95 | 0.0 | ||||||
| 29 | 18:35 | Vrbl 3 | 10.00 | Overcast | BKN070 OVC085 | 46.4 | 30.2 | 53% | 29.95 | 0.0 | |||||||
| Date | Time (edt) | Wind (mph) | Vis. (mi.) | Weather | Sky Cond. | Air | Dwpt | Max. | Min. | Relative Humidity | Wind Chill (°F) | Heat Index (°F) | altimeter (in) | sea level (mb) | 1 hr | 3 hr | 6 hr |
| 6 hour | |||||||||||||||||
| Temperature (ºF) | Pressure | Precipitation (in) | |||||||||||||||